Cincinnati, OH

12:29 PM EDT on July 23, 2016 (GMT -0400)
Newport Aquarium | | Change Station
Active Advisory: Excessive Heat Warning

Elev 499 ft 39.09 °N, 84.50 °W | Updated 1 minute ago

Clear
Clear
93.8 °F
Feels Like 99 °F
N
2.0
Wind Variable Wind from ESE
Gusts 5.0 mph

Today
High -- | Low -- °F
--% Chance of Precip.
Yesterday
High -- | Low -- °F
Precip. -- in
Pressure 30.01 in
Visibility 10.0 miles
Clouds Clear
Heat Index 99 °F
Dew Point 69 °F
Humidity 44%
Rainfall 0.00 in
Snow Depth Not available.
6:31 AM 8:57 PM
Waning Gibbous, 84% visible
METAR KLUK 231553Z 19005KT 10SM CLR 30/24 A3002 RMK AO2 SLP160 T03000244
Pressure 30.01 in
Visibility 10.0 miles
Clouds Clear
Heat Index 99 °F
Dew Point 69 °F
Humidity 44%
Rainfall 0.00 in
Snow Depth Not available.
6:31 AM 8:57 PM
Waning Gibbous, 84% visible
METAR KLUK 231553Z 19005KT 10SM CLR 30/24 A3002 RMK AO2 SLP160 T03000244

10-Day Weather Forecast

Almanac

Astronomy

Jul. 23, 2016 Rise Set
Actual Time
Civil Twilight
Nautical Twilight
Astronomical Twilight
Moon
Length of Visible Light
Length of Day
Tomorrow will be .
, % of the Moon is Illuminated

Today's Extremes

State Highs State Lows

Community

WunderPhotos

Upload Photos

1,926,858 photos uploaded!

WunderBlog® & News

Nearby

Air Quality

  Air Quality AQ Index Pollutant
Not available.

Snow Depth

Station Depth Elevation

Earthquake Activity

City Distance Mag. Time & Date
Minimum magnitude displayed is 2.5.

Coastal Water Temperatures

Place Temperature

Stations

Nearby Weather Stations

Station Location Temp. Windchill Dew Point Humidity Wind Precip. Elev Updated Type
                   

Watches & Warnings

Excessive Heat Warning
Issued: 10:28 AM EDT Jul. 23, 2016 – National Weather Service

... Excessive heat warning remains in effect until 8 PM EDT this
evening...

* heat index values... 100 to 105 due to temperatures in the lower
90s... and dewpoints in the mid 70s.

* Timing... highest temperatures and heat indices will occur this
afternoon.

* Impacts... heat stroke... heat exhaustion and other heat
related illnesses will be possible... especially if you spend a
significant amount of time outdoors... or are involved in any
strenuous outdoor activity.

Precautionary/preparedness actions...

Wear light weight and loose fitting clothing and drink plenty of
water. If possible... spend more time in air conditioned or well-
ventilated places. Reschedule strenuous outdoor activities to
early morning or evening. Friends... relatives... or neighbors
should check on the elderly and people with chronic ailments...
who are usually the first to suffer from heat-related illness.

To reduce risk during outdoor work the occupational safety and
health administration recommends scheduling frequent rest breaks
in shaded or air conditioned environments. Anyone overcome by
heat should be moved to a cool and shaded location. Heat stroke
is an emergency... call 911.